Nearby METAR Reports

 

CYKA - Kamloops Airport
Distance from station: SSW 65km
Updated: 2021-05-14 12:00
Few Clouds
Few Clouds
 Wind from S
Wind: S 7 km/h
Temperature: 20°C
Dew Point: 6°C
Humidity: 40%
Barometer: 1018.3 hPa
Clouds: Few Clouds
Visibility: 64 km
Cloud details: Few Clouds 1981 m
Few Clouds 3658 m
2021/05/14 19:00 CYKA 141900Z 19004KT 150V230 40SM FEW065 FEW120 20/06 A3007 RMK CU2AC1 AC TR SLP187 DENSITY ALT 1800FT
CWSL - Salmon Arm Autob
Distance from station: SE 90km
Updated: 2021-05-14 12:00

 Wind from N
Wind: N 4 km/h
Temperature: 19°C
Dew Point: 4°C
Humidity: 37%
2021/05/14 19:00 CWSL 141900Z AUTO 01002KT 19/04 RMK AO1 SLP194 T01920044 58020
 
CYIN - Bleibler Ranch
Distance from station: W 103km
Updated: 2021-05-14 12:00
Few Clouds
Few Clouds
 Wind from varies
Wind: varies 7 km/h
Temperature: 17°C
Dew Point: 2°C
Humidity: 37%
Barometer: 1019.6 hPa
Clouds: Few Clouds
Visibility: 14 km
Cloud details: Few Clouds 2774 m
2021/05/14 19:00 CYIN 141900Z AUTO VRB04KT 9SM FEW091 17/02 A3011 RMK SLP196 DENSITY ALT 4600FT
CYCP - Blue River (man)
Distance from station: NNE 116km
Updated: 2021-05-14 12:00
Mostly cloudy
Mostly cloudy
 Wind from calm
Wind: Calm
Temperature: 18°C
Dew Point: 2°C
Humidity: 34%
Barometer: 1019 hPa
Clouds: Mostly cloudy
Visibility: 24 km
Cloud details: Partly cloudy 2591 m
Mostly cloudy 4267 m
2021/05/14 19:00 CYCP 141900Z 00000KT 15SM SCT085TCU BKN140 18/02 A3009 RMK TCU4AC1 SLP203 DENSITY ALT 2900FT
 
CYLW - Kelowna Airport
Distance from station: SSE 157km
Updated: 2021-05-14 12:00
Clear
Clear
 Wind from varies
Wind: varies 9 km/h
Temperature: 20°C
Dew Point: 6°C
Humidity: 40%
Barometer: 1018.3 hPa
Clouds: Clear
Visibility: 14 km
2021/05/14 19:00 CYLW 141900Z AUTO VRB05KT 9SM CLR 20/06 A3007 RMK SLP189 DENSITY ALT 2200FT
CYWL - Williams Lake Airport
Distance from station: NW 164km
Updated: 2021-05-14 12:00
Partly cloudy
Partly cloudy
 Wind from SSE
Wind: SSE 9 km/h
Temperature: 16°C
Dew Point: 4°C
Humidity: 45%
Barometer: 1019.6 hPa
Clouds: Partly cloudy
Visibility: 24 km
Cloud details: Partly cloudy 2134 m
2021/05/14 19:00 CYWL 141900Z 16005KT 150V290 15SM SCT070 16/04 A3011 RMK CU3 SLP204 DENSITY ALT 3700FT